createdAt,value
2023-05-10T00:00:20.059Z,2038.00
2023-05-10T00:01:20.081Z,2040.00
2023-05-10T00:02:20.118Z,2033.00
2023-05-10T00:03:20.205Z,2030.00
2023-05-10T00:04:20.186Z,2019.00
2023-05-10T00:05:20.171Z,2021.00
2023-05-10T00:06:20.148Z,2025.00
2023-05-10T00:07:20.149Z,2018.00
2023-05-10T00:08:20.192Z,2036.00
2023-05-10T00:09:20.214Z,2018.00
2023-05-10T00:10:20.234Z,2011.00
2023-05-10T00:11:22.270Z,2016.00
2023-05-10T00:12:20.218Z,2024.00
2023-05-10T00:13:20.242Z,2003.00
2023-05-10T00:14:20.175Z,2020.00
2023-05-10T00:15:20.186Z,2023.00
2023-05-10T00:16:20.283Z,2021.00
2023-05-10T00:17:20.179Z,2014.00
2023-05-10T00:18:20.206Z,1997.00
2023-05-10T00:19:20.148Z,1988.00
2023-05-10T00:20:20.138Z,1974.00
2023-05-10T00:21:20.136Z,1987.00
2023-05-10T00:22:20.151Z,2001.00
2023-05-10T00:23:20.126Z,1996.00
2023-05-10T00:24:20.140Z,1983.00
2023-05-10T00:25:20.132Z,1992.00
2023-05-10T00:26:20.117Z,1968.00
2023-05-10T00:27:20.130Z,1985.00
2023-05-10T00:28:20.132Z,1991.00
2023-05-10T00:29:20.096Z,1977.00
2023-05-10T00:30:20.081Z,1993.00
2023-05-10T00:31:20.105Z,1980.00
2023-05-10T00:32:20.170Z,1995.00
2023-05-10T00:33:20.089Z,1979.00
2023-05-10T00:34:20.096Z,1994.00
2023-05-10T00:35:20.072Z,1988.00
2023-05-10T00:36:20.036Z,1993.00
2023-05-10T00:37:20.040Z,1982.00
2023-05-10T00:38:20.037Z,1962.00
2023-05-10T00:39:20.021Z,1968.00
2023-05-10T00:40:20.039Z,1971.00
2023-05-10T00:41:20.058Z,1975.00
2023-05-10T00:42:20.006Z,1954.00
2023-05-10T00:43:19.996Z,1939.00
2023-05-10T00:44:19.987Z,1951.00
2023-05-10T00:45:19.979Z,1941.00
2023-05-10T00:46:20.067Z,1958.00
2023-05-10T00:47:19.991Z,1959.00
2023-05-10T00:48:19.979Z,1949.00
2023-05-10T00:49:19.959Z,1923.00
2023-05-10T00:50:19.974Z,1936.00
2023-05-10T00:51:19.965Z,1906.00
2023-05-10T00:52:19.931Z,1905.00
2023-05-10T00:53:19.954Z,1893.00
2023-05-10T00:54:19.945Z,1894.00
2023-05-10T00:55:19.923Z,1866.00
2023-05-10T00:56:19.922Z,1870.00
2023-05-10T00:57:19.917Z,1883.00
2023-05-10T00:58:19.895Z,1854.00
2023-05-10T00:59:19.923Z,1863.00
2023-05-10T01:00:19.875Z,1879.00
2023-05-10T01:01:19.921Z,1881.00
2023-05-10T01:02:19.945Z,1887.00
2023-05-10T01:03:20.100Z,1901.00
2023-05-10T01:04:19.847Z,1886.00
2023-05-10T01:05:19.887Z,1902.00
2023-05-10T01:06:19.857Z,1920.00
2023-05-10T01:07:19.835Z,1918.00
2023-05-10T01:08:19.851Z,1919.00
2023-05-10T01:09:19.836Z,1921.00
2023-05-10T01:10:19.830Z,1958.00
2023-05-10T01:11:19.841Z,1941.00
2023-05-10T01:12:19.908Z,1949.00
2023-05-10T01:13:19.885Z,1907.00
2023-05-10T01:14:19.781Z,1909.00
2023-05-10T01:15:19.816Z,1919.00
2023-05-10T01:16:19.804Z,1910.00
2023-05-10T01:17:19.807Z,1897.00
2023-05-10T01:18:19.797Z,1893.00
2023-05-10T01:19:19.768Z,1921.00
2023-05-10T01:20:19.886Z,1939.00
2023-05-10T01:21:19.824Z,1920.00
2023-05-10T01:22:19.755Z,1929.00
2023-05-10T01:23:19.760Z,1932.00
2023-05-10T01:24:19.772Z,1937.00
2023-05-10T01:25:19.730Z,1945.00
2023-05-10T01:26:19.705Z,1973.00
2023-05-10T01:27:19.718Z,1944.00
2023-05-10T01:28:19.696Z,1964.00
2023-05-10T01:29:19.731Z,1954.00
2023-05-10T01:31:19.758Z,1952.00
2023-05-10T01:32:19.663Z,1929.00
2023-05-10T01:33:19.684Z,1919.00
2023-05-10T01:34:19.679Z,1890.00
2023-05-10T01:35:19.663Z,1876.00
2023-05-10T01:36:19.651Z,1861.00
2023-05-10T01:37:19.631Z,1847.00
2023-05-10T01:38:19.623Z,1818.00
2023-05-10T01:39:19.643Z,1819.00
2023-05-10T01:40:19.628Z,1814.00
2023-05-10T01:41:19.700Z,1786.00
2023-05-10T01:42:19.626Z,1793.00
2023-05-10T01:43:19.612Z,1789.00
2023-05-10T01:44:19.585Z,1772.00
2023-05-10T01:45:19.597Z,1755.00
2023-05-10T01:46:19.658Z,1779.00
2023-05-10T01:47:19.578Z,1749.00
2023-05-10T01:48:19.588Z,1736.00
2023-05-10T01:49:19.569Z,1747.00
2023-05-10T01:50:19.669Z,1729.00
2023-05-10T01:51:19.560Z,1735.00
2023-05-10T01:52:19.527Z,1729.00
2023-05-10T01:53:19.519Z,1738.00
2023-05-10T01:54:19.549Z,1738.00
2023-05-10T01:55:19.576Z,1750.00
2023-05-10T01:56:19.526Z,1729.00
2023-05-10T01:57:19.497Z,1745.00
2023-05-10T01:58:19.521Z,1744.00
2023-05-10T01:59:19.536Z,1743.00
2023-05-10T02:00:19.490Z,1762.00
2023-05-10T02:01:19.547Z,1734.00
2023-05-10T02:02:19.483Z,1725.00
2023-05-10T02:03:19.516Z,1740.00
2023-05-10T02:04:19.492Z,1768.00
2023-05-10T02:05:19.445Z,1768.00
2023-05-10T02:06:19.449Z,1784.00
2023-05-10T02:07:19.459Z,1742.00
2023-05-10T02:08:19.431Z,1749.00
2023-05-10T02:09:19.419Z,1765.00
2023-05-10T02:10:19.524Z,1776.00
2023-05-10T02:11:19.407Z,1772.00
2023-05-10T02:12:19.400Z,1789.00
2023-05-10T02:13:19.456Z,1782.00
2023-05-10T02:14:19.393Z,1784.00
2023-05-10T02:15:19.410Z,1768.00
2023-05-10T02:16:19.515Z,1773.00
2023-05-10T02:17:19.368Z,1764.00
2023-05-10T02:18:19.400Z,1752.00
2023-05-10T02:19:19.353Z,1734.00
2023-05-10T02:20:19.556Z,1704.00
2023-05-10T02:21:19.336Z,1700.00
2023-05-10T02:22:19.401Z,1660.00
2023-05-10T02:23:19.318Z,1663.00
2023-05-10T02:24:19.335Z,1634.00
2023-05-10T02:25:19.322Z,1638.00
2023-05-10T02:26:19.328Z,1644.00
2023-05-10T02:27:19.307Z,1635.00
2023-05-10T02:28:19.312Z,1593.00
2023-05-10T02:29:19.306Z,1605.00
2023-05-10T02:30:19.280Z,1645.00
2023-05-10T02:31:19.358Z,1601.00
2023-05-10T02:32:19.281Z,1603.00
2023-05-10T02:33:19.256Z,1610.00
2023-05-10T02:34:19.345Z,1613.00
2023-05-10T02:35:19.248Z,1603.00
2023-05-10T02:36:19.280Z,1620.00
2023-05-10T02:37:19.269Z,1601.00
2023-05-10T02:38:19.232Z,1604.00
2023-05-10T02:39:19.246Z,1618.00
2023-05-10T02:40:19.385Z,1610.00
2023-05-10T02:41:19.221Z,1592.00
2023-05-10T02:42:19.219Z,1613.00
2023-05-10T02:43:19.212Z,1606.00
2023-05-10T02:44:19.199Z,1629.00
2023-05-10T02:45:19.184Z,1640.00
2023-05-10T02:46:19.218Z,1617.00
2023-05-10T02:47:19.165Z,1586.00
2023-05-10T02:48:19.174Z,1563.00
2023-05-10T02:49:19.182Z,1564.00
2023-05-10T02:50:19.226Z,1561.00
2023-05-10T02:51:19.215Z,1585.00
2023-05-10T02:52:19.161Z,1575.00
2023-05-10T02:53:19.141Z,1577.00
2023-05-10T02:54:19.163Z,1584.00
2023-05-10T02:55:19.156Z,1620.00
2023-05-10T02:56:19.119Z,1586.00
2023-05-10T02:57:19.156Z,1580.00
2023-05-10T02:58:19.139Z,1554.00
2023-05-10T02:59:19.124Z,1548.00
2023-05-10T03:00:19.138Z,1567.00
2023-05-10T03:01:19.149Z,1563.00
2023-05-10T03:02:19.139Z,1557.00
2023-05-10T03:03:19.140Z,1532.00
2023-05-10T03:04:19.214Z,1527.00
2023-05-10T03:05:19.132Z,1546.00
2023-05-10T03:06:19.142Z,1554.00
2023-05-10T03:07:19.152Z,1578.00
2023-05-10T03:08:19.184Z,1568.00
2023-05-10T03:09:19.166Z,1536.00
2023-05-10T03:10:19.364Z,1536.00
2023-05-10T03:11:19.149Z,1556.00
2023-05-10T03:12:19.159Z,1585.00
2023-05-10T03:13:19.236Z,1576.00
2023-05-10T03:14:19.191Z,1566.00
2023-05-10T03:15:19.195Z,1596.00
2023-05-10T03:16:19.230Z,1590.00
2023-05-10T03:17:19.184Z,1576.00
2023-05-10T03:18:19.202Z,1587.00
2023-05-10T03:19:19.222Z,1568.00
2023-05-10T03:20:19.218Z,1569.00
2023-05-10T03:21:19.219Z,1543.00
2023-05-10T03:22:19.224Z,1562.00
2023-05-10T03:23:19.235Z,1572.00
2023-05-10T03:24:19.215Z,1556.00
2023-05-10T03:25:19.216Z,1571.00
2023-05-10T03:26:19.276Z,1557.00
2023-05-10T03:27:19.221Z,1564.00
2023-05-10T03:28:19.282Z,1572.00
2023-05-10T03:29:19.281Z,1590.00
2023-05-10T03:30:19.418Z,1638.00
2023-05-10T03:31:19.266Z,1656.00
2023-05-10T03:32:19.222Z,1635.00
2023-05-10T03:33:19.226Z,1666.00
2023-05-10T03:34:19.232Z,1682.00
2023-05-10T03:35:19.227Z,1657.00
2023-05-10T03:36:19.274Z,1651.00
2023-05-10T03:37:19.279Z,1670.00
2023-05-10T03:38:19.317Z,1696.00
2023-05-10T03:39:19.346Z,1709.00
2023-05-10T03:40:19.539Z,1711.00
2023-05-10T03:41:19.362Z,1691.00
2023-05-10T03:42:19.419Z,1690.00
2023-05-10T03:43:19.432Z,1708.00
2023-05-10T03:44:19.428Z,1668.00
2023-05-10T03:45:19.490Z,1690.00
2023-05-10T03:46:19.443Z,1672.00
2023-05-10T03:47:19.450Z,1634.00
2023-05-10T03:48:19.437Z,1621.00
2023-05-10T03:49:19.452Z,1623.00
2023-05-10T03:50:19.603Z,1614.00
2023-05-10T03:51:19.484Z,1629.00
2023-05-10T03:52:19.529Z,1609.00
2023-05-10T03:53:19.533Z,1583.00
2023-05-10T03:54:19.543Z,1584.00
2023-05-10T03:55:19.540Z,1555.00
2023-05-10T03:56:19.539Z,1534.00
2023-05-10T03:57:19.523Z,1537.00
2023-05-10T03:58:19.539Z,1509.00
2023-05-10T03:59:19.546Z,1543.00
2023-05-10T04:00:19.714Z,1533.00
2023-05-10T04:01:19.547Z,1558.00
2023-05-10T04:02:19.589Z,1538.00
2023-05-10T04:03:19.704Z,1531.00
2023-05-10T04:04:19.959Z,1510.00
2023-05-10T04:05:19.660Z,1516.00
2023-05-10T04:06:19.711Z,1506.00
2023-05-10T04:07:19.658Z,1489.00
2023-05-10T04:08:19.668Z,1458.00
2023-05-10T04:09:19.723Z,1448.00
2023-05-10T04:10:19.766Z,1450.00
2023-05-10T04:11:19.693Z,1452.00
2023-05-10T04:12:19.692Z,1448.00
2023-05-10T04:13:19.742Z,1457.00
2023-05-10T04:14:19.701Z,1443.00
2023-05-10T04:15:19.717Z,1479.00
2023-05-10T04:16:19.782Z,1510.00
2023-05-10T04:17:19.751Z,1526.00
2023-05-10T04:18:19.704Z,1526.00
2023-05-10T04:19:19.822Z,1520.00
2023-05-10T04:20:19.767Z,1482.00
2023-05-10T04:21:19.694Z,1502.00
2023-05-10T04:22:19.722Z,1508.00
2023-05-10T04:23:19.699Z,1528.00
2023-05-10T04:24:19.705Z,1519.00
2023-05-10T04:25:19.702Z,1486.00
2023-05-10T04:26:19.693Z,1499.00
2023-05-10T04:27:19.705Z,1486.00
2023-05-10T04:28:19.744Z,1477.00
2023-05-10T04:29:19.695Z,1458.00
2023-05-10T04:30:19.692Z,1461.00
2023-05-10T04:31:19.828Z,1447.00
2023-05-10T04:32:19.700Z,1450.00
2023-05-10T04:33:19.696Z,1453.00
2023-05-10T04:34:20.128Z,1472.00
2023-05-10T04:35:19.721Z,1466.00
2023-05-10T04:36:19.717Z,1469.00
2023-05-10T04:37:19.714Z,1443.00
2023-05-10T04:38:19.722Z,1446.00
2023-05-10T04:39:19.728Z,1463.00
2023-05-10T04:40:19.745Z,1464.00
2023-05-10T04:41:19.741Z,1482.00
2023-05-10T04:42:19.749Z,1492.00
2023-05-10T04:43:19.764Z,1520.00
2023-05-10T04:44:19.783Z,1531.00
2023-05-10T04:45:19.769Z,1539.00
2023-05-10T04:46:19.817Z,1521.00
2023-05-10T04:47:19.777Z,1534.00
2023-05-10T04:48:19.751Z,1521.00
2023-05-10T04:49:19.754Z,1564.00
2023-05-10T04:50:19.787Z,1559.00
2023-05-10T04:51:19.797Z,1568.00
2023-05-10T04:52:19.794Z,1578.00
2023-05-10T04:53:19.799Z,1556.00
2023-05-10T04:54:19.795Z,1542.00
2023-05-10T04:55:19.782Z,1549.00
2023-05-10T04:56:19.801Z,1545.00
2023-05-10T04:57:19.824Z,1539.00
2023-05-10T04:58:19.818Z,1514.00
2023-05-10T04:59:19.836Z,1518.00
2023-05-10T05:00:19.830Z,1518.00
2023-05-10T05:01:19.854Z,1474.00
2023-05-10T05:02:19.852Z,1495.00
2023-05-10T05:03:19.978Z,1500.00
2023-05-10T05:04:19.836Z,1500.00
2023-05-10T05:05:19.858Z,1521.00
2023-05-10T05:06:19.841Z,1558.00
2023-05-10T05:07:19.865Z,1599.00
2023-05-10T05:08:19.844Z,1664.00
2023-05-10T05:09:19.875Z,1692.00
2023-05-10T05:10:20.122Z,1709.00
2023-05-10T05:11:19.866Z,1742.00
2023-05-10T05:12:19.870Z,1749.00
2023-05-10T05:13:19.927Z,1741.00
2023-05-10T05:14:19.870Z,1737.00
2023-05-10T05:15:19.880Z,1703.00
2023-05-10T05:16:19.886Z,1685.00
2023-05-10T05:17:19.870Z,1660.00
2023-05-10T05:18:19.898Z,1657.00
2023-05-10T05:19:19.905Z,1650.00
2023-05-10T05:20:20.007Z,1629.00
2023-05-10T05:21:19.960Z,1633.00
2023-05-10T05:22:19.909Z,1632.00
2023-05-10T05:23:19.924Z,1684.00
2023-05-10T05:24:19.933Z,1715.00
2023-05-10T05:25:19.934Z,1725.00
2023-05-10T05:26:19.955Z,1785.00
2023-05-10T05:27:19.956Z,1800.00
2023-05-10T05:28:19.974Z,1825.00
2023-05-10T05:29:19.977Z,1815.00
2023-05-10T05:30:20.011Z,1827.00
2023-05-10T05:31:20.081Z,1836.00
2023-05-10T05:32:20.020Z,1925.00
2023-05-10T05:33:20.029Z,1992.00
2023-05-10T05:34:20.155Z,2052.00
2023-05-10T05:35:20.055Z,2090.00
2023-05-10T05:36:20.042Z,2071.00
2023-05-10T05:37:20.044Z,2105.00
2023-05-10T05:38:20.073Z,2152.00
2023-05-10T05:39:20.044Z,2183.00
2023-05-10T05:40:20.036Z,2283.00
2023-05-10T05:41:20.074Z,2307.00
2023-05-10T05:42:20.083Z,2320.00
2023-05-10T05:43:20.165Z,2399.00
2023-05-10T05:44:20.236Z,2453.00
2023-05-10T05:45:20.426Z,2500.00
2023-05-10T05:46:20.353Z,2576.00
2023-05-10T05:47:20.400Z,2610.00
2023-05-10T05:48:20.447Z,2653.00
2023-05-10T05:49:20.686Z,2682.00
2023-05-10T05:50:20.529Z,2704.00
2023-05-10T05:51:20.584Z,2731.00
2023-05-10T05:52:20.619Z,2761.00
2023-05-10T05:53:20.681Z,2779.00
2023-05-10T05:54:21.141Z,2805.00
2023-05-10T05:55:20.758Z,2825.00
2023-05-10T05:56:20.789Z,2824.00
2023-05-10T05:57:20.814Z,2825.00
2023-05-10T05:58:20.870Z,2854.00
2023-05-10T05:59:20.893Z,2700.00
2023-05-10T06:00:20.936Z,2447.00
2023-05-10T06:01:21.014Z,2267.00
2023-05-10T06:02:21.096Z,2162.00
2023-05-10T06:03:21.220Z,2122.00
2023-05-10T06:04:21.137Z,2067.00
2023-05-10T06:05:21.080Z,2041.00
2023-05-10T06:06:21.104Z,1962.00
2023-05-10T06:07:21.117Z,1929.00
2023-05-10T06:08:21.149Z,1918.00
2023-05-10T06:09:21.162Z,2024.00
2023-05-10T06:10:21.192Z,2073.00
2023-05-10T06:11:21.221Z,2124.00
2023-05-10T06:12:21.260Z,2172.00
2023-05-10T06:13:21.280Z,2186.00
2023-05-10T06:14:21.277Z,2210.00
2023-05-10T06:15:21.678Z,2275.00
2023-05-10T06:16:21.327Z,2350.00
2023-05-10T06:17:21.291Z,2405.00
2023-05-10T06:18:21.300Z,2447.00
2023-05-10T06:19:21.670Z,2505.00
2023-05-10T06:20:21.669Z,2536.00
2023-05-10T06:21:21.492Z,2574.00
2023-05-10T06:22:21.551Z,2597.00
2023-05-10T06:23:21.624Z,2591.00
2023-05-10T06:24:21.660Z,2616.00
2023-05-10T06:25:21.709Z,2615.00
2023-05-10T06:26:21.742Z,2646.00
2023-05-10T06:27:21.785Z,2644.00
2023-05-10T06:28:21.806Z,2679.00
2023-05-10T06:29:21.848Z,2712.00
2023-05-10T06:30:22.199Z,2734.00
2023-05-10T06:31:21.934Z,2679.00
2023-05-10T06:32:21.957Z,2681.00
2023-05-10T06:33:22.020Z,2717.00
2023-05-10T06:34:22.183Z,2718.00
2023-05-10T06:35:22.042Z,2705.00
2023-05-10T06:36:22.072Z,2712.00
2023-05-10T06:37:22.063Z,2747.00
2023-05-10T06:38:22.095Z,2748.00
2023-05-10T06:39:22.131Z,2794.00
2023-05-10T06:40:22.132Z,2838.00
2023-05-10T06:41:24.604Z,2847.00
2023-05-10T06:42:22.367Z,2857.00
2023-05-10T06:43:22.412Z,2862.00
2023-05-10T06:44:22.415Z,2870.00
2023-05-10T06:45:22.424Z,2889.00
2023-05-10T06:46:22.431Z,2887.00
2023-05-10T06:47:22.412Z,2880.00
2023-05-10T06:48:22.567Z,2892.00
2023-05-10T06:49:22.415Z,2902.00
2023-05-10T06:50:22.428Z,2899.00
2023-05-10T06:51:22.424Z,2906.00
2023-05-10T06:52:22.419Z,2903.00
2023-05-10T06:53:22.404Z,2905.00
2023-05-10T06:54:22.400Z,2905.00
2023-05-10T06:55:22.410Z,2905.00
2023-05-10T06:56:22.446Z,2901.00
2023-05-10T06:57:31.224Z,2896.00
2023-05-10T06:58:23.411Z,2897.00
2023-05-10T06:59:23.236Z,2902.00
2023-05-10T07:00:22.393Z,2877.00
2023-05-10T07:01:22.443Z,2849.00
2023-05-10T07:02:22.418Z,2888.00
2023-05-10T07:03:22.466Z,2885.00
2023-05-10T07:04:22.406Z,2861.00
2023-05-10T07:05:22.429Z,2867.00
2023-05-10T07:06:32.774Z,2858.00
2023-05-10T07:07:23.327Z,2860.00
2023-05-10T07:08:22.341Z,2859.00
2023-05-10T07:09:22.329Z,2769.00
2023-05-10T07:10:22.334Z,2741.00
2023-05-10T07:11:22.362Z,2782.00
2023-05-10T07:12:22.338Z,2789.00
2023-05-10T07:13:22.349Z,2709.00
2023-05-10T07:14:22.294Z,2770.00
2023-05-10T07:15:22.289Z,2827.00
2023-05-10T07:16:22.338Z,2840.00
2023-05-10T07:17:22.331Z,2843.00
2023-05-10T07:18:22.376Z,2855.00
2023-05-10T07:19:22.357Z,2880.00
2023-05-10T07:20:22.421Z,2894.00
2023-05-10T07:21:22.500Z,2914.00
2023-05-10T07:22:22.534Z,2904.00
2023-05-10T07:23:22.594Z,2919.00
2023-05-10T07:24:22.662Z,2821.00
2023-05-10T07:25:22.727Z,2830.00
2023-05-10T07:26:22.793Z,2795.00
2023-05-10T07:27:22.834Z,2817.00
2023-05-10T07:28:22.871Z,2799.00
2023-05-10T07:29:22.936Z,2699.00
2023-05-10T07:30:22.969Z,2682.00
2023-05-10T07:31:22.917Z,2696.00
2023-05-10T07:32:23.274Z,2604.00
2023-05-10T07:33:23.004Z,2661.00
2023-05-10T07:34:22.972Z,2745.00
2023-05-10T07:35:23.013Z,2801.00
2023-05-10T07:36:23.046Z,2808.00
2023-05-10T07:37:23.065Z,2731.00
2023-05-10T07:38:23.105Z,2739.00
2023-05-10T07:39:27.476Z,2824.00
2023-05-10T07:40:24.150Z,2739.00
2023-05-10T07:41:23.145Z,2542.00
2023-05-10T07:42:23.145Z,2682.00
2023-05-10T07:43:23.229Z,2633.00
2023-05-10T07:44:23.124Z,2761.00
2023-05-10T07:45:23.137Z,2830.00
2023-05-10T07:46:23.214Z,2853.00
2023-05-10T07:47:23.122Z,2853.00
2023-05-10T07:48:23.100Z,2860.00
2023-05-10T07:49:23.192Z,2807.00
2023-05-10T07:50:23.203Z,2687.00
2023-05-10T07:51:23.097Z,2687.00
2023-05-10T07:52:23.097Z,2717.00
2023-05-10T07:53:23.067Z,2773.00
2023-05-10T07:54:23.057Z,2773.00
2023-05-10T07:55:23.207Z,2799.00
2023-05-10T07:56:23.041Z,2750.00
2023-05-10T07:57:23.016Z,2691.00
2023-05-10T07:58:23.028Z,2617.00
2023-05-10T07:59:23.011Z,2530.00
2023-05-10T08:00:23.197Z,2496.00
2023-05-10T08:01:23.012Z,2476.00
2023-05-10T08:02:23.066Z,2354.00
2023-05-10T08:03:23.012Z,2313.00
2023-05-10T08:04:23.017Z,2300.00
2023-05-10T08:05:23.005Z,2303.00
2023-05-10T08:06:22.969Z,2314.00
2023-05-10T08:07:22.956Z,2331.00
2023-05-10T08:08:22.998Z,2302.00
2023-05-10T08:09:22.981Z,2276.00
2023-05-10T08:10:22.957Z,2254.00
2023-05-10T08:11:22.938Z,2277.00
2023-05-10T08:12:22.941Z,2261.00
2023-05-10T08:13:22.951Z,2279.00
2023-05-10T08:14:22.930Z,2261.00
2023-05-10T08:15:23.235Z,2257.00
2023-05-10T08:16:23.013Z,2259.00
2023-05-10T08:17:24.825Z,2249.00
2023-05-10T08:18:23.055Z,2233.00
2023-05-10T08:19:22.947Z,2234.00
2023-05-10T08:20:23.227Z,2222.00
2023-05-10T08:21:22.996Z,2212.00
2023-05-10T08:22:22.979Z,2206.00
2023-05-10T08:23:22.991Z,2165.00
2023-05-10T08:24:23.035Z,2196.00
2023-05-10T08:25:23.014Z,2245.00
2023-05-10T08:26:23.054Z,2215.00
2023-05-10T08:27:23.056Z,2294.00
2023-05-10T08:28:23.087Z,2326.00
2023-05-10T08:29:23.112Z,2314.00
2023-05-10T08:30:23.134Z,2293.00
2023-05-10T08:31:23.150Z,2278.00
2023-05-10T08:32:23.150Z,2252.00
2023-05-10T08:33:23.186Z,2187.00
2023-05-10T08:34:23.417Z,2153.00
2023-05-10T08:35:23.213Z,2141.00
2023-05-10T08:36:23.253Z,2119.00
2023-05-10T08:37:23.262Z,2136.00
2023-05-10T08:38:23.315Z,2247.00
2023-05-10T08:39:29.780Z,2298.00
2023-05-10T08:40:24.315Z,2301.00
2023-05-10T08:41:23.366Z,2325.00
2023-05-10T08:42:23.264Z,2372.00
2023-05-10T08:43:23.280Z,2442.00
2023-05-10T08:44:23.279Z,2546.00
2023-05-10T08:45:23.759Z,2555.00
2023-05-10T08:46:24.229Z,2545.00
2023-05-10T08:47:23.296Z,2545.00
2023-05-10T08:48:23.253Z,2536.00
2023-05-10T08:49:23.255Z,2536.00
2023-05-10T08:50:23.240Z,2548.00
2023-05-10T08:51:23.230Z,2501.00
2023-05-10T08:52:23.224Z,2417.00
2023-05-10T08:53:23.228Z,2438.00
2023-05-10T08:54:23.237Z,2406.00
2023-05-10T08:55:23.232Z,2426.00
2023-05-10T08:56:23.218Z,2393.00
2023-05-10T08:57:23.185Z,2463.00
2023-05-10T08:58:23.220Z,2496.00
2023-05-10T08:59:23.186Z,2507.00
2023-05-10T09:00:23.181Z,2516.00
2023-05-10T09:01:23.319Z,2534.00
2023-05-10T09:02:23.174Z,2533.00
2023-05-10T09:03:23.239Z,2528.00
2023-05-10T09:04:23.198Z,2525.00
2023-05-10T09:05:23.184Z,2517.00
2023-05-10T09:06:23.140Z,2482.00
2023-05-10T09:07:23.137Z,2419.00
2023-05-10T09:08:23.128Z,2471.00
2023-05-10T09:09:23.110Z,2476.00
2023-05-10T09:10:23.228Z,2484.00
2023-05-10T09:11:23.103Z,2484.00
2023-05-10T09:12:23.118Z,2489.00
2023-05-10T09:13:23.103Z,2381.00
2023-05-10T09:14:23.082Z,2356.00
2023-05-10T09:15:23.248Z,2443.00
2023-05-10T09:16:23.176Z,2476.00
2023-05-10T09:17:23.147Z,2493.00
2023-05-10T09:18:23.101Z,2447.00
2023-05-10T09:19:23.083Z,2440.00
2023-05-10T09:20:23.240Z,2421.00
2023-05-10T09:21:23.143Z,2415.00
2023-05-10T09:22:23.201Z,2445.00
2023-05-10T09:23:23.221Z,2472.00
2023-05-10T09:24:23.254Z,2464.00
2023-05-10T09:25:23.754Z,2496.00
2023-05-10T09:26:23.352Z,2396.00
2023-05-10T09:27:23.323Z,2361.00
2023-05-10T09:28:23.332Z,2303.00
2023-05-10T09:29:23.286Z,2239.00
2023-05-10T09:30:23.740Z,2169.00
2023-05-10T09:31:23.567Z,2098.00
2023-05-10T09:32:23.344Z,2072.00
2023-05-10T09:33:23.296Z,2046.00
2023-05-10T09:34:23.301Z,2097.00
2023-05-10T09:35:23.293Z,2039.00
2023-05-10T09:36:23.735Z,2028.00
2023-05-10T09:37:23.316Z,2027.00
2023-05-10T09:38:23.316Z,2002.00
2023-05-10T09:39:23.316Z,1944.00
2023-05-10T09:40:23.339Z,1875.00
2023-05-10T09:41:23.337Z,1828.00
2023-05-10T09:42:23.315Z,1854.00
2023-05-10T09:43:23.344Z,1777.00
2023-05-10T09:44:23.347Z,1838.00
2023-05-10T09:45:23.758Z,1846.00
2023-05-10T09:46:23.396Z,1819.00
2023-05-10T09:47:23.436Z,1913.00
2023-05-10T09:48:23.373Z,2067.00
2023-05-10T09:49:23.357Z,2084.00
2023-05-10T09:50:23.759Z,2096.00
2023-05-10T09:51:23.362Z,2067.00
2023-05-10T09:52:23.365Z,2070.00
2023-05-10T09:53:23.357Z,1974.00
2023-05-10T09:54:23.358Z,1966.00
2023-05-10T09:55:23.391Z,2037.00
2023-05-10T09:56:23.367Z,2008.00
2023-05-10T09:57:23.343Z,2038.00
2023-05-10T09:58:23.367Z,2091.00
2023-05-10T09:59:23.348Z,2029.00
2023-05-10T10:00:23.357Z,1984.00
2023-05-10T10:01:23.412Z,1931.00
2023-05-10T10:02:23.380Z,1995.00
2023-05-10T10:03:23.376Z,2088.00
2023-05-10T10:04:23.354Z,1914.00
2023-05-10T10:05:23.333Z,1985.00
2023-05-10T10:06:30.027Z,2099.00
2023-05-10T10:07:24.349Z,2049.00
2023-05-10T10:08:23.331Z,2061.00
2023-05-10T10:09:23.312Z,1895.00
2023-05-10T10:10:23.311Z,1496.00
2023-05-10T10:11:23.310Z,1299.00
2023-05-10T10:12:23.296Z,1192.00
2023-05-10T10:13:23.293Z,1122.00
2023-05-10T10:14:23.287Z,1113.00
2023-05-10T10:15:23.514Z,1022.00
2023-05-10T10:16:23.857Z,995.00
2023-05-10T10:17:23.314Z,970.00
2023-05-10T10:18:23.251Z,1080.00
2023-05-10T10:19:23.244Z,1132.00
2023-05-10T10:20:23.244Z,1261.00
2023-05-10T10:21:23.281Z,1312.00
2023-05-10T10:22:23.232Z,1413.00
2023-05-10T10:23:23.273Z,1454.00
2023-05-10T10:24:23.294Z,1497.00
2023-05-10T10:25:23.388Z,1415.00
2023-05-10T10:26:23.773Z,1361.00
2023-05-10T10:27:23.490Z,1171.00
2023-05-10T10:28:24.018Z,1036.00
2023-05-10T10:29:23.558Z,1090.00
2023-05-10T10:30:23.531Z,999.00
2023-05-10T10:31:23.617Z,1000.00
2023-05-10T10:32:23.548Z,939.00
2023-05-10T10:33:28.479Z,948.00
2023-05-10T10:34:24.511Z,949.00
2023-05-10T10:35:23.521Z,956.00
2023-05-10T10:36:23.797Z,965.00
2023-05-10T10:37:23.503Z,917.00
2023-05-10T10:38:23.494Z,917.00
2023-05-10T10:39:23.489Z,898.00
2023-05-10T10:40:23.479Z,910.00
2023-05-10T10:41:23.474Z,920.00
2023-05-10T10:42:23.464Z,870.00
2023-05-10T10:43:23.447Z,802.00
2023-05-10T10:44:23.506Z,909.00
2023-05-10T10:45:23.435Z,817.00
2023-05-10T10:46:23.474Z,724.00
2023-05-10T10:47:23.466Z,782.00
2023-05-10T10:48:23.412Z,809.00
2023-05-10T10:49:23.443Z,775.00
2023-05-10T10:50:23.410Z,763.00
2023-05-10T10:51:23.424Z,745.00
2023-05-10T10:52:23.399Z,756.00
2023-05-10T10:53:23.447Z,835.00
2023-05-10T10:54:23.390Z,788.00
2023-05-10T10:55:23.396Z,744.00
2023-05-10T10:56:23.428Z,733.00
2023-05-10T10:57:23.427Z,704.00
2023-05-10T10:58:23.441Z,701.00
2023-05-10T10:59:23.431Z,704.00
2023-05-10T11:00:23.446Z,753.00
2023-05-10T11:01:23.517Z,776.00
2023-05-10T11:02:23.525Z,781.00
2023-05-10T11:03:23.486Z,805.00
2023-05-10T11:04:23.549Z,768.00
2023-05-10T11:05:23.505Z,724.00
2023-05-10T11:06:23.788Z,771.00
2023-05-10T11:07:23.524Z,729.00
2023-05-10T11:08:23.543Z,670.00
2023-05-10T11:09:23.555Z,641.00
2023-05-10T11:10:23.575Z,664.00
2023-05-10T11:11:23.596Z,661.00
2023-05-10T11:12:23.661Z,630.00
2023-05-10T11:13:23.633Z,638.00
2023-05-10T11:14:23.693Z,636.00
2023-05-10T11:15:23.695Z,661.00
2023-05-10T11:16:23.734Z,646.00
2023-05-10T11:17:23.857Z,650.00
2023-05-10T11:18:23.776Z,704.00
2023-05-10T11:19:23.798Z,740.00
2023-05-10T11:20:23.825Z,855.00
2023-05-10T11:21:23.855Z,990.00
2023-05-10T11:22:23.891Z,1153.00
2023-05-10T11:23:23.909Z,1305.00
2023-05-10T11:24:23.915Z,1436.00
2023-05-10T11:25:23.935Z,1532.00
2023-05-10T11:26:23.963Z,1589.00
2023-05-10T11:27:23.948Z,1636.00
2023-05-10T11:28:23.976Z,1563.00
2023-05-10T11:29:23.980Z,1434.00
2023-05-10T11:30:23.972Z,1176.00
2023-05-10T11:31:24.054Z,906.00
2023-05-10T11:32:24.117Z,708.00
2023-05-10T11:33:24.082Z,634.00
2023-05-10T11:34:24.066Z,608.00
2023-05-10T11:35:24.118Z,555.00
2023-05-10T11:36:24.203Z,513.00
2023-05-10T11:37:24.233Z,500.00
2023-05-10T11:38:24.288Z,519.00
2023-05-10T11:39:24.330Z,563.00
2023-05-10T11:40:24.393Z,627.00
2023-05-10T11:41:24.460Z,710.00
2023-05-10T11:42:24.488Z,777.00
2023-05-10T11:43:24.556Z,722.00
2023-05-10T11:44:24.586Z,699.00
2023-05-10T11:45:24.645Z,719.00
2023-05-10T11:46:24.676Z,705.00
2023-05-10T11:47:24.679Z,710.00
2023-05-10T11:48:24.729Z,746.00
2023-05-10T11:49:24.720Z,792.00
2023-05-10T11:50:24.768Z,797.00
2023-05-10T11:51:24.780Z,811.00
2023-05-10T11:52:24.785Z,840.00
2023-05-10T11:53:25.935Z,889.00
2023-05-10T11:54:24.831Z,960.00
2023-05-10T11:55:24.829Z,945.00
2023-05-10T11:56:24.885Z,955.00
2023-05-10T11:57:24.848Z,1067.00
2023-05-10T11:58:24.857Z,1059.00
2023-05-10T11:59:24.850Z,1113.00
2023-05-10T12:00:24.852Z,1141.00
2023-05-10T12:01:24.844Z,1195.00
2023-05-10T12:02:24.921Z,1225.00
2023-05-10T12:03:24.942Z,1265.00
2023-05-10T12:04:24.892Z,1221.00
2023-05-10T12:05:24.865Z,1238.00
2023-05-10T12:06:25.313Z,1232.00
2023-05-10T12:07:24.896Z,1250.00
2023-05-10T12:08:24.919Z,1231.00
2023-05-10T12:09:39.448Z,1243.00